createdAt,value
2017-08-08T00:01:31.324Z,17.00
2017-08-08T00:03:59.091Z,16.90
2017-08-08T00:06:27.036Z,16.90
2017-08-08T00:08:54.606Z,16.80
2017-08-08T00:11:22.202Z,16.80
2017-08-08T00:13:49.740Z,16.90
2017-08-08T00:16:17.329Z,17.10
2017-08-08T00:18:44.861Z,17.10
2017-08-08T00:21:12.441Z,17.10
2017-08-08T00:23:39.988Z,17.10
2017-08-08T00:26:07.687Z,17.20
2017-08-08T00:28:35.320Z,17.20
2017-08-08T00:31:03.061Z,17.20
2017-08-08T00:33:30.810Z,17.30
2017-08-08T00:35:58.700Z,17.30
2017-08-08T00:38:26.731Z,17.20
2017-08-08T00:40:54.494Z,17.20
2017-08-08T00:43:22.080Z,17.30
2017-08-08T00:45:49.616Z,17.30
2017-08-08T00:48:17.185Z,17.30
2017-08-08T00:50:44.726Z,17.30
2017-08-08T00:53:12.299Z,17.30
2017-08-08T00:55:39.831Z,17.40
2017-08-08T00:58:07.436Z,17.30
2017-08-08T01:00:35.029Z,17.40
2017-08-08T01:03:02.653Z,17.40
2017-08-08T01:05:32.278Z,17.40
2017-08-08T01:08:00.164Z,17.50
2017-08-08T01:10:28.016Z,17.40
2017-08-08T01:12:55.816Z,17.40
2017-08-08T01:15:23.363Z,17.40
2017-08-08T01:17:50.940Z,17.50
2017-08-08T01:20:18.492Z,17.50
2017-08-08T01:22:46.028Z,17.50
2017-08-08T01:25:13.588Z,17.50
2017-08-08T01:27:41.122Z,17.40
2017-08-08T01:30:08.803Z,17.40
2017-08-08T01:32:36.346Z,17.50
2017-08-08T01:35:03.988Z,17.50
2017-08-08T01:37:31.675Z,17.50
2017-08-08T01:39:59.559Z,17.60
2017-08-08T01:42:27.387Z,17.60
2017-08-08T01:44:55.039Z,17.60
2017-08-08T01:47:22.621Z,17.80
2017-08-08T01:49:50.183Z,17.70
2017-08-08T01:52:17.711Z,17.70
2017-08-08T01:54:45.246Z,17.70
2017-08-08T01:57:12.803Z,17.70
2017-08-08T01:59:40.370Z,17.70
2017-08-08T02:02:07.929Z,17.70
2017-08-08T02:04:35.553Z,17.70
2017-08-08T02:07:03.162Z,17.80
2017-08-08T02:09:31.356Z,17.70
2017-08-08T02:11:59.258Z,17.80
2017-08-08T02:14:27.455Z,17.70
2017-08-08T02:16:55.003Z,17.70
2017-08-08T02:19:22.561Z,17.70
2017-08-08T02:21:50.123Z,17.70
2017-08-08T02:24:17.647Z,17.80
2017-08-08T02:26:45.225Z,17.80
2017-08-08T02:29:12.747Z,17.70
2017-08-08T02:31:40.315Z,17.60
2017-08-08T02:34:07.925Z,17.60
2017-08-08T02:36:35.541Z,17.60
2017-08-08T02:39:03.297Z,17.70
2017-08-08T02:41:30.994Z,17.70
2017-08-08T02:43:59.000Z,17.60
2017-08-08T02:46:27.691Z,17.60
2017-08-08T02:48:55.453Z,17.50
2017-08-08T02:51:23.048Z,17.50
2017-08-08T02:53:50.608Z,17.50
2017-08-08T02:56:18.144Z,17.50
2017-08-08T02:58:45.703Z,17.60
2017-08-08T03:01:13.235Z,17.50
2017-08-08T03:03:40.799Z,17.50
2017-08-08T03:06:08.371Z,17.50
2017-08-08T03:08:35.995Z,17.60
2017-08-08T03:11:03.585Z,17.60
2017-08-08T03:13:31.316Z,17.60
2017-08-08T03:15:58.949Z,17.60
2017-08-08T03:18:26.711Z,17.60
2017-08-08T03:20:54.327Z,17.60
2017-08-08T03:23:21.887Z,17.70
2017-08-08T03:25:49.411Z,17.70
2017-08-08T03:28:16.972Z,17.60
2017-08-08T03:30:44.497Z,17.50
2017-08-08T03:33:12.092Z,17.60
2017-08-08T03:35:40.279Z,17.60
2017-08-08T03:38:07.868Z,17.60
2017-08-08T03:40:35.539Z,17.60
2017-08-08T03:43:03.173Z,17.60
2017-08-08T03:45:30.889Z,17.60
2017-08-08T03:47:59.082Z,17.70
2017-08-08T03:50:27.770Z,17.70
2017-08-08T03:52:55.980Z,17.80
2017-08-08T03:55:23.636Z,17.80
2017-08-08T03:57:51.195Z,17.80
2017-08-08T04:00:18.723Z,17.70
2017-08-08T04:02:46.279Z,17.70
2017-08-08T04:05:13.811Z,17.70
2017-08-08T04:07:41.384Z,17.80
2017-08-08T04:10:08.923Z,17.80
2017-08-08T04:12:36.501Z,17.90
2017-08-08T04:15:04.108Z,17.90
2017-08-08T04:17:31.720Z,18.00
2017-08-08T04:19:59.551Z,18.00
2017-08-08T04:22:27.643Z,18.00
2017-08-08T04:24:55.371Z,17.90
2017-08-08T04:27:22.944Z,18.00
2017-08-08T04:29:50.502Z,18.00
2017-08-08T04:32:18.024Z,18.00
2017-08-08T04:34:45.584Z,18.10
2017-08-08T04:37:13.116Z,18.00
2017-08-08T04:39:40.707Z,18.10
2017-08-08T04:42:08.264Z,18.10
2017-08-08T04:44:35.890Z,18.20
2017-08-08T04:47:03.550Z,18.10
2017-08-08T04:49:31.503Z,18.10
2017-08-08T04:51:59.592Z,18.10
2017-08-08T04:54:27.575Z,18.20
2017-08-08T04:56:55.206Z,18.30
2017-08-08T04:59:22.816Z,18.30
2017-08-08T05:01:50.395Z,18.30
2017-08-08T05:04:17.924Z,18.30
2017-08-08T05:06:45.483Z,18.30
2017-08-08T05:09:13.011Z,18.30
2017-08-08T05:11:40.577Z,18.40
2017-08-08T05:14:08.153Z,18.30
2017-08-08T05:16:35.805Z,18.40
2017-08-08T05:19:03.371Z,18.40
2017-08-08T05:21:31.235Z,18.30
2017-08-08T05:23:59.282Z,18.30
2017-08-08T05:26:27.642Z,18.40
2017-08-08T05:28:55.339Z,18.50
2017-08-08T05:31:22.955Z,18.50
2017-08-08T05:33:50.515Z,18.50
2017-08-08T05:36:18.045Z,18.60
2017-08-08T05:38:45.573Z,18.50
2017-08-08T05:41:13.131Z,18.60
2017-08-08T05:43:40.697Z,18.60
2017-08-08T05:46:08.400Z,18.70
2017-08-08T05:48:35.995Z,18.70
2017-08-08T05:51:03.627Z,18.60
2017-08-08T05:53:31.435Z,18.60
2017-08-08T05:55:59.664Z,18.60
2017-08-08T05:58:27.679Z,18.60
2017-08-08T06:00:55.549Z,18.60
2017-08-08T06:03:23.227Z,18.70
2017-08-08T06:05:51.054Z,18.70
2017-08-08T06:08:18.843Z,18.70
2017-08-08T06:10:47.377Z,18.80
2017-08-08T06:13:16.649Z,18.70
2017-08-08T06:15:44.266Z,18.70
2017-08-08T06:18:11.996Z,18.70
2017-08-08T06:20:39.636Z,18.70
2017-08-08T06:23:07.336Z,18.90
2017-08-08T06:25:34.954Z,19.00
2017-08-08T06:28:02.493Z,19.10
2017-08-08T06:30:30.078Z,19.20
2017-08-08T06:32:57.598Z,19.20
2017-08-08T06:35:25.136Z,19.30
2017-08-08T06:37:52.701Z,19.40
2017-08-08T06:40:20.236Z,19.50
2017-08-08T06:42:47.800Z,19.70
2017-08-08T06:45:15.337Z,19.80
2017-08-08T06:47:43.018Z,20.00
2017-08-08T06:50:10.629Z,20.10
2017-08-08T06:52:38.295Z,20.20
2017-08-08T06:55:05.825Z,20.20
2017-08-08T06:57:33.384Z,20.30
2017-08-08T07:00:00.931Z,20.20
2017-08-08T07:02:28.492Z,20.10
2017-08-08T07:04:56.035Z,20.00
2017-08-08T07:07:23.607Z,20.00
2017-08-08T07:09:51.144Z,20.00
2017-08-08T07:12:18.732Z,20.00
2017-08-08T07:14:46.363Z,19.90
2017-08-08T07:17:13.962Z,19.80
2017-08-08T07:19:41.617Z,19.90
2017-08-08T07:22:09.266Z,19.80
2017-08-08T07:24:36.931Z,19.70
2017-08-08T07:27:04.556Z,19.70
2017-08-08T07:29:32.119Z,19.60
2017-08-08T07:31:59.679Z,19.60
2017-08-08T07:34:27.237Z,19.70
2017-08-08T07:36:54.851Z,19.70
2017-08-08T07:39:22.524Z,19.70
2017-08-08T07:41:50.134Z,19.90
2017-08-08T07:44:18.275Z,20.10
2017-08-08T07:46:46.679Z,20.20
2017-08-08T07:49:14.606Z,20.40
2017-08-08T07:51:42.526Z,20.70
2017-08-08T07:54:10.213Z,21.00
2017-08-08T07:56:37.821Z,21.10
2017-08-08T07:59:05.384Z,21.00
2017-08-08T08:01:32.998Z,20.80
2017-08-08T08:04:00.670Z,20.90
2017-08-08T08:06:28.287Z,21.00
2017-08-08T08:08:56.031Z,21.20
2017-08-08T08:11:23.754Z,21.40
2017-08-08T08:13:51.657Z,21.60
2017-08-08T08:16:19.569Z,21.70
2017-08-08T08:18:47.855Z,21.80
2017-08-08T08:21:15.828Z,21.90
2017-08-08T08:23:43.770Z,22.00
2017-08-08T08:26:11.654Z,22.00
2017-08-08T08:28:39.368Z,22.10
2017-08-08T08:31:07.365Z,22.10
2017-08-08T08:33:35.001Z,22.10
2017-08-08T08:36:02.638Z,22.10
2017-08-08T08:38:30.276Z,22.10
2017-08-08T08:40:57.938Z,22.00
2017-08-08T08:43:25.535Z,21.80
2017-08-08T08:45:53.157Z,21.70
2017-08-08T08:48:20.755Z,21.60
2017-08-08T08:50:48.675Z,21.50
2017-08-08T08:53:16.722Z,21.40
2017-08-08T08:55:44.413Z,21.30
2017-08-08T08:58:12.001Z,21.10
2017-08-08T09:00:39.664Z,21.20
2017-08-08T09:03:07.224Z,21.00
2017-08-08T09:05:34.879Z,20.80
2017-08-08T09:08:02.449Z,20.80
2017-08-08T09:10:30.019Z,20.80
2017-08-08T09:12:57.743Z,20.70
2017-08-08T09:15:25.363Z,20.70
2017-08-08T09:17:53.129Z,20.80
2017-08-08T09:20:20.852Z,20.60
2017-08-08T09:22:49.757Z,20.50
2017-08-08T09:25:17.786Z,20.50
2017-08-08T09:27:45.500Z,20.50
2017-08-08T09:30:13.612Z,20.50
2017-08-08T09:32:41.147Z,20.40
2017-08-08T09:35:08.811Z,20.40
2017-08-08T09:37:36.364Z,20.40
2017-08-08T09:40:04.032Z,20.30
2017-08-08T09:42:31.737Z,20.30
2017-08-08T09:44:59.388Z,20.20
2017-08-08T09:47:27.154Z,20.10
2017-08-08T09:49:54.727Z,20.10
2017-08-08T09:52:22.375Z,20.10
2017-08-08T09:54:50.265Z,20.10
2017-08-08T09:57:18.260Z,20.10
2017-08-08T09:59:46.761Z,20.10
2017-08-08T10:02:14.560Z,20.20
2017-08-08T10:04:42.089Z,20.20
2017-08-08T10:07:09.650Z,20.10
2017-08-08T10:09:37.180Z,20.00
2017-08-08T10:12:04.839Z,20.10
2017-08-08T10:14:32.832Z,20.30
2017-08-08T10:17:00.396Z,20.50
2017-08-08T10:19:28.187Z,20.70
2017-08-08T10:21:56.183Z,21.00
2017-08-08T10:24:23.708Z,21.30
2017-08-08T10:26:51.623Z,21.50
2017-08-08T10:29:19.171Z,21.60
2017-08-08T10:31:46.952Z,21.60
2017-08-08T10:34:14.870Z,21.30
2017-08-08T10:36:42.445Z,21.20
2017-08-08T10:39:10.048Z,21.10
2017-08-08T10:41:37.629Z,21.00
2017-08-08T10:44:05.583Z,20.80
2017-08-08T10:46:33.399Z,20.80
2017-08-08T10:49:01.195Z,20.80
2017-08-08T10:51:28.839Z,20.60
2017-08-08T10:53:56.405Z,20.70
2017-08-08T10:56:24.000Z,20.70
2017-08-08T10:58:51.629Z,20.80
2017-08-08T11:01:19.467Z,20.80
2017-08-08T11:03:47.240Z,20.60
2017-08-08T11:06:15.240Z,20.60
2017-08-08T11:08:42.811Z,20.80
2017-08-08T11:11:10.496Z,21.00
2017-08-08T11:13:38.083Z,21.20
2017-08-08T11:16:05.630Z,21.40
2017-08-08T11:18:33.199Z,21.40
2017-08-08T11:21:00.731Z,21.40
2017-08-08T11:23:28.292Z,21.30
2017-08-08T11:25:55.820Z,21.30
2017-08-08T11:28:23.379Z,21.40
2017-08-08T11:30:50.900Z,21.40
2017-08-08T11:33:18.478Z,21.50
2017-08-08T11:35:46.132Z,21.40
2017-08-08T11:38:13.758Z,21.50
2017-08-08T11:40:41.386Z,21.50
2017-08-08T11:43:08.972Z,21.70
2017-08-08T11:45:36.603Z,21.90
2017-08-08T11:48:04.206Z,22.00
2017-08-08T11:50:31.731Z,22.20
2017-08-08T11:52:59.271Z,22.10
2017-08-08T11:55:26.849Z,22.20
2017-08-08T11:57:54.424Z,22.10
2017-08-08T12:00:22.050Z,22.10
2017-08-08T12:02:49.641Z,22.00
2017-08-08T12:05:17.240Z,21.90
2017-08-08T12:07:44.905Z,21.80
2017-08-08T12:10:12.642Z,21.90
2017-08-08T12:12:40.188Z,22.00
2017-08-08T12:15:07.771Z,22.10
2017-08-08T12:17:35.312Z,22.20
2017-08-08T12:20:02.903Z,22.20
2017-08-08T12:22:30.432Z,22.20
2017-08-08T12:24:57.968Z,22.30
2017-08-08T12:27:25.560Z,22.30
2017-08-08T12:29:53.216Z,22.30
2017-08-08T12:32:20.868Z,22.20
2017-08-08T12:34:48.491Z,22.20
2017-08-08T12:37:16.156Z,22.30
2017-08-08T12:39:43.693Z,22.40
2017-08-08T12:42:11.357Z,22.50
2017-08-08T12:44:38.959Z,22.50
2017-08-08T12:47:06.529Z,22.70
2017-08-08T12:49:34.057Z,22.90
2017-08-08T12:52:01.663Z,23.00
2017-08-08T12:54:29.193Z,23.00
2017-08-08T12:56:56.852Z,22.80
2017-08-08T12:59:24.442Z,22.70
2017-08-08T13:01:52.008Z,22.70
2017-08-08T13:04:19.558Z,22.40
2017-08-08T13:06:47.146Z,22.40
2017-08-08T13:09:14.684Z,22.30
2017-08-08T13:11:42.335Z,22.10
2017-08-08T13:14:09.932Z,22.10
2017-08-08T13:16:37.467Z,21.80
2017-08-08T13:19:05.119Z,21.70
2017-08-08T13:21:32.721Z,21.70
2017-08-08T13:24:00.376Z,21.80
2017-08-08T13:26:27.911Z,21.70
2017-08-08T13:28:55.472Z,21.80
2017-08-08T13:31:23.000Z,22.00
2017-08-08T13:33:50.593Z,22.10
2017-08-08T13:36:18.174Z,22.00
2017-08-08T13:38:45.752Z,22.00
2017-08-08T13:41:13.304Z,21.80
2017-08-08T13:43:40.872Z,21.70
2017-08-08T13:46:08.421Z,21.90
2017-08-08T13:48:35.992Z,22.10
2017-08-08T13:53:37.340Z,22.40
2017-08-08T13:56:04.869Z,22.70
2017-08-08T13:58:32.480Z,23.00
2017-08-08T14:01:00.008Z,23.20
2017-08-08T14:03:27.532Z,23.40
2017-08-08T14:05:55.099Z,23.70
2017-08-08T14:08:22.632Z,23.90
2017-08-08T14:10:50.223Z,24.00
2017-08-08T14:13:17.824Z,24.20
2017-08-08T14:15:45.544Z,24.00
2017-08-08T14:18:13.072Z,24.00
2017-08-08T14:20:40.632Z,24.10
2017-08-08T14:23:08.179Z,24.10
2017-08-08T14:25:35.776Z,24.10
2017-08-08T14:28:03.341Z,24.20
2017-08-08T14:30:30.922Z,24.30
2017-08-08T14:32:58.456Z,24.60
2017-08-08T14:35:26.027Z,24.70
2017-08-08T14:37:53.564Z,24.80
2017-08-08T14:40:21.132Z,24.80
2017-08-08T14:42:48.661Z,24.70
2017-08-08T14:45:16.232Z,24.70
2017-08-08T14:47:43.776Z,24.90
2017-08-08T14:50:11.349Z,25.00
2017-08-08T14:52:38.874Z,24.90
2017-08-08T14:55:06.449Z,25.00
2017-08-08T14:57:33.985Z,24.80
2017-08-08T15:00:01.543Z,24.90
2017-08-08T15:02:29.082Z,24.70
2017-08-08T15:04:56.643Z,24.40
2017-08-08T15:07:24.176Z,24.50
2017-08-08T15:09:51.751Z,24.30
2017-08-08T15:12:19.323Z,24.40
2017-08-08T15:14:46.911Z,24.40
2017-08-08T15:17:14.435Z,24.20
2017-08-08T15:19:41.992Z,24.10
2017-08-08T15:22:09.529Z,24.20
2017-08-08T15:24:37.100Z,24.40
2017-08-08T15:27:04.627Z,24.20
2017-08-08T15:29:32.204Z,24.20
2017-08-08T15:31:59.765Z,24.30
2017-08-08T15:34:27.340Z,24.50
2017-08-08T15:36:54.880Z,24.60
2017-08-08T15:39:22.464Z,24.50
2017-08-08T15:41:50.020Z,24.60
2017-08-08T15:44:17.600Z,24.70
2017-08-08T15:46:45.170Z,24.80
2017-08-08T15:49:12.744Z,24.70
2017-08-08T15:51:40.292Z,24.60
2017-08-08T15:54:07.859Z,24.60
2017-08-08T15:56:35.394Z,24.50
2017-08-08T15:59:02.961Z,24.40
2017-08-08T16:01:30.497Z,24.30
2017-08-08T16:03:58.067Z,24.30
2017-08-08T16:06:25.600Z,24.30
2017-08-08T16:08:53.131Z,24.20
2017-08-08T16:11:20.704Z,24.20
2017-08-08T16:13:48.244Z,24.30
2017-08-08T16:16:15.800Z,24.10
2017-08-08T16:18:43.331Z,24.00
2017-08-08T16:21:10.909Z,23.90
2017-08-08T16:23:38.448Z,23.80
2017-08-08T16:26:06.110Z,23.80
2017-08-08T16:28:33.635Z,23.70
2017-08-08T16:31:01.173Z,23.70
2017-08-08T16:33:28.740Z,23.60
2017-08-08T16:35:56.280Z,23.60
2017-08-08T16:38:23.852Z,23.50
2017-08-08T16:40:51.382Z,23.40
2017-08-08T16:43:18.959Z,23.30
2017-08-08T16:45:46.498Z,23.30
2017-08-08T16:48:14.058Z,23.20
2017-08-08T16:50:41.608Z,23.00
2017-08-08T16:53:09.335Z,23.00
2017-08-08T16:55:36.863Z,22.90
2017-08-08T16:58:04.390Z,22.90
2017-08-08T17:00:31.949Z,22.80
2017-08-08T17:02:59.504Z,22.70
2017-08-08T17:05:27.067Z,22.80
2017-08-08T17:07:54.608Z,22.70
2017-08-08T17:10:22.163Z,22.60
2017-08-08T17:12:49.683Z,22.60
2017-08-08T17:15:17.252Z,22.60
2017-08-08T17:17:44.803Z,22.50
2017-08-08T17:20:12.475Z,22.50
2017-08-08T17:22:40.000Z,22.50
2017-08-08T17:25:07.536Z,22.50
2017-08-08T17:27:35.095Z,22.50
2017-08-08T17:30:02.624Z,22.50
2017-08-08T17:32:30.183Z,22.60
2017-08-08T17:34:57.724Z,22.70
2017-08-08T17:37:25.294Z,22.80
2017-08-08T17:39:52.820Z,22.90
2017-08-08T17:42:20.391Z,22.80
2017-08-08T17:44:47.940Z,22.80
2017-08-08T17:47:15.510Z,22.70
2017-08-08T17:49:43.112Z,22.60
2017-08-08T17:52:10.780Z,22.60
2017-08-08T17:54:38.315Z,22.40
2017-08-08T17:57:05.849Z,22.30
2017-08-08T17:59:33.424Z,22.20
2017-08-08T18:02:00.987Z,22.10
2017-08-08T18:04:28.555Z,22.00
2017-08-08T18:06:56.087Z,21.80
2017-08-08T18:09:23.664Z,21.70
2017-08-08T18:11:51.228Z,21.50
2017-08-08T18:14:18.800Z,21.40
2017-08-08T18:16:46.388Z,21.40
2017-08-08T18:19:14.297Z,21.40
2017-08-08T18:21:41.820Z,21.30
2017-08-08T18:24:09.359Z,21.30
2017-08-08T18:26:36.945Z,21.20
2017-08-08T18:29:04.489Z,21.20
2017-08-08T18:31:32.051Z,21.10
2017-08-08T18:33:59.583Z,21.00
2017-08-08T18:36:27.249Z,21.00
2017-08-08T18:38:54.785Z,21.00
2017-08-08T18:41:22.331Z,21.00
2017-08-08T18:43:49.920Z,20.90
2017-08-08T18:46:17.464Z,20.70
2017-08-08T18:48:45.036Z,20.50
2017-08-08T18:51:12.574Z,20.40
2017-08-08T18:53:40.164Z,20.20
2017-08-08T18:56:07.691Z,20.20
2017-08-08T18:58:35.252Z,20.10
2017-08-08T19:01:02.787Z,20.10
2017-08-08T19:03:30.459Z,20.00
2017-08-08T19:05:57.988Z,19.80
2017-08-08T19:08:25.522Z,19.70
2017-08-08T19:10:53.088Z,19.60
2017-08-08T19:13:20.624Z,19.60
2017-08-08T19:15:48.204Z,19.40
2017-08-08T19:18:15.775Z,19.30
2017-08-08T19:20:43.349Z,19.10
2017-08-08T19:23:10.883Z,19.10
2017-08-08T19:25:38.559Z,19.10
2017-08-08T19:28:06.100Z,19.00
2017-08-08T19:30:33.627Z,18.80
2017-08-08T19:33:01.200Z,18.70
2017-08-08T19:35:28.731Z,18.80
2017-08-08T19:37:56.299Z,18.70
2017-08-08T19:40:23.837Z,18.60
2017-08-08T19:42:51.400Z,18.60
2017-08-08T19:45:18.941Z,18.70
2017-08-08T19:47:46.527Z,18.40
2017-08-08T19:50:14.059Z,18.40
2017-08-08T19:52:41.624Z,18.30
2017-08-08T19:55:09.156Z,18.20
2017-08-08T19:57:37.064Z,18.20
2017-08-08T20:00:04.608Z,18.30
2017-08-08T20:02:32.145Z,18.30
2017-08-08T20:04:59.703Z,18.10
2017-08-08T20:07:27.227Z,18.00
2017-08-08T20:09:54.779Z,17.90
2017-08-08T20:12:22.324Z,17.90
2017-08-08T20:14:49.921Z,17.90
2017-08-08T20:17:17.478Z,17.80
2017-08-08T20:19:45.954Z,17.70
2017-08-08T20:22:13.484Z,17.70
2017-08-08T20:24:41.043Z,17.60
2017-08-08T20:27:08.578Z,17.60
2017-08-08T20:29:36.131Z,17.60
2017-08-08T20:32:03.666Z,17.40
2017-08-08T20:34:31.241Z,17.40
2017-08-08T20:36:58.803Z,17.30
2017-08-08T20:39:26.330Z,17.20
2017-08-08T20:41:53.891Z,17.20
2017-08-08T20:44:21.434Z,17.20
2017-08-08T20:46:48.999Z,17.20
2017-08-08T20:49:16.530Z,17.30
2017-08-08T20:51:44.111Z,17.40
2017-08-08T20:54:11.648Z,17.40
2017-08-08T20:56:39.214Z,17.30
2017-08-08T20:59:06.780Z,17.40
2017-08-08T21:01:34.321Z,17.30
2017-08-08T21:04:01.900Z,17.30
2017-08-08T21:06:29.422Z,17.30
2017-08-08T21:08:57.007Z,17.30
2017-08-08T21:11:24.528Z,17.30
2017-08-08T21:13:52.097Z,17.30
2017-08-08T21:16:19.631Z,17.30
2017-08-08T21:18:47.210Z,17.30
2017-08-08T21:21:14.736Z,17.20
2017-08-08T21:23:42.602Z,17.30
2017-08-08T21:26:10.131Z,17.30
2017-08-08T21:28:37.664Z,17.20
2017-08-08T21:31:05.229Z,17.30
2017-08-08T21:33:32.762Z,17.40
2017-08-08T21:36:00.329Z,17.50
2017-08-08T21:38:27.863Z,17.50
2017-08-08T21:40:55.433Z,17.40
2017-08-08T21:43:22.966Z,17.40
2017-08-08T21:45:50.536Z,17.40
2017-08-08T21:48:18.071Z,17.40
2017-08-08T21:50:45.664Z,17.50
2017-08-08T21:53:13.208Z,17.40
2017-08-08T21:55:40.766Z,17.40
2017-08-08T21:58:08.301Z,17.40
2017-08-08T22:00:36.012Z,17.50
2017-08-08T22:03:03.549Z,17.40
2017-08-08T22:05:31.080Z,17.30
2017-08-08T22:07:58.641Z,17.20
2017-08-08T22:10:26.188Z,17.30
2017-08-08T22:12:53.754Z,17.40
2017-08-08T22:15:21.284Z,17.30
2017-08-08T22:17:48.846Z,17.40
2017-08-08T22:20:16.386Z,17.50
2017-08-08T22:22:43.956Z,17.50
2017-08-08T22:25:11.480Z,17.60
2017-08-08T22:27:39.031Z,17.60
2017-08-08T22:30:06.568Z,17.60
2017-08-08T22:32:34.127Z,17.70
2017-08-08T22:35:01.660Z,17.90
2017-08-08T22:37:29.326Z,17.80
2017-08-08T22:39:56.858Z,17.70
2017-08-08T22:42:24.388Z,17.80
2017-08-08T22:44:51.955Z,17.70
2017-08-08T22:47:19.488Z,17.80
2017-08-08T22:49:47.068Z,17.70
2017-08-08T22:52:14.604Z,17.70
2017-08-08T22:54:42.169Z,17.90
2017-08-08T22:57:09.692Z,17.80
2017-08-08T22:59:37.246Z,17.90
2017-08-08T23:02:04.776Z,17.80
2017-08-08T23:04:32.359Z,17.80
2017-08-08T23:06:59.928Z,17.80
2017-08-08T23:09:27.447Z,17.70
2017-08-08T23:11:55.011Z,17.70
2017-08-08T23:14:22.540Z,17.70
2017-08-08T23:16:50.063Z,17.70
2017-08-08T23:19:17.628Z,17.80
2017-08-08T23:21:45.158Z,17.70
2017-08-08T23:24:12.720Z,17.70
2017-08-08T23:26:40.244Z,17.70
2017-08-08T23:29:07.805Z,17.60
2017-08-08T23:31:35.329Z,17.60
2017-08-08T23:34:03.220Z,17.60
2017-08-08T23:36:30.762Z,17.60
2017-08-08T23:38:58.292Z,17.60
2017-08-08T23:41:25.847Z,17.50
2017-08-08T23:43:53.391Z,17.50
2017-08-08T23:46:20.975Z,17.40
2017-08-08T23:48:48.536Z,17.40
2017-08-08T23:51:16.105Z,17.40
2017-08-08T23:53:43.649Z,17.30
2017-08-08T23:56:11.229Z,17.30
2017-08-08T23:58:38.759Z,17.20
